Time;durP1;ratioP1;P1;durP2;ratioP2;P2;SDS_P1;SDS_P2;PMS_P1;PMS_P2;Temp;Humidity;BMP_temperature;BMP_pressure;BME280_temperature;BME280_humidity;BME280_pressure;Samples;Min_cycle;Max_cycle;Signal;HPM_P1;HPM_P2
2022/05/18 00:00:48;;;;;;;2.30;0.70;;;;;;;;;;5030861;28;20517;-63
2022/05/18 00:03:16;;;;;;;2.42;0.90;;;;;;;;;;5031907;28;20033;-62
2022/05/18 00:05:43;;;;;;;3.00;0.95;;;;;;;;;;5031620;28;20055;-63
2022/05/18 00:08:10;;;;;;;3.00;0.90;;;;;;;;;;5031943;28;20414;-63
2022/05/18 00:10:38;;;;;;;3.03;0.90;;;;;;;;;;5030435;28;20045;-64
2022/05/18 00:13:05;;;;;;;2.67;0.93;;;;;;;;;;5032153;28;20124;-63
2022/05/18 00:15:32;;;;;;;2.85;1.00;;;;;;;;;;5031479;28;20120;-63
2022/05/18 00:17:59;;;;;;;2.22;0.70;;;;;;;;;;5031819;28;20060;-63
2022/05/18 00:20:27;;;;;;;2.10;0.68;;;;;;;;;;5029811;28;20071;-64
2022/05/18 00:22:56;;;;;;;3.58;0.70;;;;;;;;;;5034253;28;20048;-65
2022/05/18 00:25:24;;;;;;;4.22;1.63;;;;;;;;;;5018538;28;20059;-65
2022/05/18 00:27:51;;;;;;;3.47;1.20;;;;;;;;;;5032955;28;20049;-64
2022/05/18 00:30:19;;;;;;;3.10;1.08;;;;;;;;;;5032698;28;20052;-61
2022/05/18 00:32:46;;;;;;;3.88;1.10;;;;;;;;;;5034891;28;20041;-64
2022/05/18 00:35:13;;;;;;;2.50;0.90;;;;;;;;;;5020021;28;20033;-65
2022/05/18 00:37:40;;;;;;;4.63;0.90;;;;;;;;;;5034414;28;20052;-65
2022/05/18 00:40:08;;;;;;;2.85;0.93;;;;;;;;;;5032031;28;20060;-65
2022/05/18 00:42:35;;;;;;;3.75;1.10;;;;;;;;;;5016731;28;20059;-66
2022/05/18 00:45:02;;;;;;;3.35;1.02;;;;;;;;;;5033118;28;20099;-66
2022/05/18 00:47:29;;;;;;;4.60;1.27;;;;;;;;;;5027620;28;20046;-66
2022/05/18 00:49:58;;;;;;;2.88;0.98;;;;;;;;;;5010906;28;20037;-65
2022/05/18 00:52:27;;;;;;;4.93;1.70;;;;;;;;;;5010863;28;20071;-65
2022/05/18 00:54:54;;;;;;;6.15;1.80;;;;;;;;;;5012559;28;20048;-66
2022/05/18 00:57:25;;;;;;;3.03;0.90;;;;;;;;;;5016199;28;20034;-65
2022/05/18 01:00:03;;;;;;;5.97;0.90;;;;;;;;;;5027566;28;20482;-66
2022/05/18 01:02:31;;;;;;;6.70;1.25;;;;;;;;;;5030652;28;20037;-65
2022/05/18 01:05:00;;;;;;;3.30;1.10;;;;;;;;;;5035742;28;20049;-65
2022/05/18 01:07:32;;;;;;;2.10;0.80;;;;;;;;;;5033049;28;20445;-66
2022/05/18 01:09:59;;;;;;;2.80;0.90;;;;;;;;;;5034089;28;20091;-65
2022/05/18 01:12:26;;;;;;;4.70;0.98;;;;;;;;;;5015073;28;20061;-62
2022/05/18 01:14:58;;;;;;;7.32;1.33;;;;;;;;;;5011381;28;20034;-64
2022/05/18 01:17:27;;;;;;;4.00;1.03;;;;;;;;;;5011245;28;20072;-63
2022/05/18 01:19:54;;;;;;;3.28;0.80;;;;;;;;;;5009678;28;20052;-64
2022/05/18 01:22:26;;;;;;;3.00;0.80;;;;;;;;;;5006768;28;20120;-63
2022/05/18 01:25:15;;;;;;;3.58;0.90;;;;;;;;;;5010320;28;20053;-63
2022/05/18 01:27:42;;;;;;;5.28;1.15;;;;;;;;;;5004758;28;20387;-64
2022/05/18 01:30:10;;;;;;;4.45;0.90;;;;;;;;;;5009804;28;20117;-62
2022/05/18 01:33:03;;;;;;;3.53;0.95;;;;;;;;;;5010465;28;20041;-64
2022/05/18 01:35:31;;;;;;;2.75;0.90;;;;;;;;;;5007570;28;20723;-63
2022/05/18 01:37:59;;;;;;;2.20;0.60;;;;;;;;;;5008387;28;20041;-63
2022/05/18 01:40:40;;;;;;;2.35;0.80;;;;;;;;;;5005416;28;20099;-65
2022/05/18 01:43:06;;;;;;;2.72;0.70;;;;;;;;;;5023127;28;20136;-64
2022/05/18 01:45:33;;;;;;;2.45;0.82;;;;;;;;;;5031282;28;20578;-63
2022/05/18 01:48:14;;;;;;;2.75;0.70;;;;;;;;;;5049363;28;20528;-63
2022/05/18 01:50:42;;;;;;;2.70;0.80;;;;;;;;;;5037685;28;20044;-64
2022/05/18 01:53:09;;;;;;;2.70;0.90;;;;;;;;;;5051354;28;20037;-64
2022/05/18 01:55:36;;;;;;;2.72;0.90;;;;;;;;;;5047716;28;20041;-64
2022/05/18 01:58:03;;;;;;;1.50;0.55;;;;;;;;;;5048645;28;20052;-64
2022/05/18 02:00:30;;;;;;;2.30;0.70;;;;;;;;;;5047794;28;20036;-63
2022/05/18 02:02:57;;;;;;;3.75;0.80;;;;;;;;;;5048636;28;20170;-63
2022/05/18 02:05:24;;;;;;;3.60;1.00;;;;;;;;;;5048469;28;20052;-64
2022/05/18 02:07:51;;;;;;;2.00;0.60;;;;;;;;;;5049979;28;20040;-64
2022/05/18 02:10:18;;;;;;;3.38;0.80;;;;;;;;;;5047969;28;20036;-63
2022/05/18 02:12:45;;;;;;;2.00;0.70;;;;;;;;;;5047690;28;20020;-64
2022/05/18 02:15:12;;;;;;;3.20;0.90;;;;;;;;;;5048874;28;20040;-68
2022/05/18 02:17:40;;;;;;;5.60;1.00;;;;;;;;;;5055426;28;20041;-64
2022/05/18 02:20:07;;;;;;;2.97;1.00;;;;;;;;;;5032703;28;20052;-63
2022/05/18 02:22:34;;;;;;;3.30;0.93;;;;;;;;;;5047326;28;20055;-65
2022/05/18 02:25:01;;;;;;;2.33;0.70;;;;;;;;;;5046869;28;20060;-65
2022/05/18 02:27:29;;;;;;;2.78;0.70;;;;;;;;;;5046035;28;20036;-64
2022/05/18 02:29:56;;;;;;;3.88;1.00;;;;;;;;;;5046588;28;20044;-63
2022/05/18 02:32:22;;;;;;;3.58;0.90;;;;;;;;;;5047334;28;20445;-62
2022/05/18 02:34:49;;;;;;;2.45;0.82;;;;;;;;;;5047714;28;20090;-64
2022/05/18 02:37:16;;;;;;;5.13;0.80;;;;;;;;;;5047400;28;20048;-63
2022/05/18 02:39:43;;;;;;;2.53;0.70;;;;;;;;;;5045818;28;20450;-63
2022/05/18 02:42:10;;;;;;;4.38;0.88;;;;;;;;;;5047941;28;20064;-64
2022/05/18 02:44:36;;;;;;;2.35;0.70;;;;;;;;;;5020014;28;20456;-66
2022/05/18 02:47:03;;;;;;;3.85;0.90;;;;;;;;;;5042634;28;20037;-65
2022/05/18 02:49:31;;;;;;;2.90;1.00;;;;;;;;;;5047502;28;20052;-65
2022/05/18 02:52:00;;;;;;;2.97;0.80;;;;;;;;;;5047167;28;20068;-64
2022/05/18 02:57:13;;;;;;;2.70;0.90;;;;;;;;;;5028134;28;20088;-64
2022/05/18 02:59:40;;;;;;;5.32;0.80;;;;;;;;;;5027517;28;20448;-65
2022/05/18 03:02:07;;;;;;;3.13;0.75;;;;;;;;;;5029588;28;20041;-65
2022/05/18 03:04:33;;;;;;;4.18;1.00;;;;;;;;;;5029553;28;20588;-65
2022/05/18 03:07:01;;;;;;;3.17;1.00;;;;;;;;;;5031556;28;20094;-64
2022/05/18 03:09:27;;;;;;;2.65;0.80;;;;;;;;;;5043579;28;20747;-65
2022/05/18 03:11:55;;;;;;;2.53;0.93;;;;;;;;;;5028618;28;20044;-65
2022/05/18 03:14:22;;;;;;;3.08;0.80;;;;;;;;;;5027450;28;20044;-65
2022/05/18 03:16:48;;;;;;;2.35;0.82;;;;;;;;;;5029020;28;20088;-64
2022/05/18 03:19:15;;;;;;;2.40;0.88;;;;;;;;;;5028478;28;20635;-65
2022/05/18 03:24:27;;;;;;;2.78;0.90;;;;;;;;;;5029137;28;20048;-65
2022/05/18 03:26:54;;;;;;;2.78;0.70;;;;;;;;;;5028593;28;20060;-66
2022/05/18 03:29:21;;;;;;;2.78;0.98;;;;;;;;;;5027372;28;20061;-65
2022/05/18 03:31:48;;;;;;;2.50;0.75;;;;;;;;;;5028732;28;20042;-65
2022/05/18 03:34:16;;;;;;;2.20;0.60;;;;;;;;;;5027077;28;20041;-64
2022/05/18 03:36:42;;;;;;;1.73;0.57;;;;;;;;;;5027010;28;21160;-65
2022/05/18 03:39:10;;;;;;;4.05;0.90;;;;;;;;;;5029478;28;20033;-66
2022/05/18 03:41:36;;;;;;;2.05;0.70;;;;;;;;;;5030281;28;20043;-65
2022/05/18 03:44:07;;;;;;;2.80;0.80;;;;;;;;;;5033415;28;20414;-64
2022/05/18 03:46:34;;;;;;;3.17;0.88;;;;;;;;;;5042081;28;20497;-64
2022/05/18 03:49:01;;;;;;;3.33;0.80;;;;;;;;;;5051191;28;20100;-65
2022/05/18 03:51:28;;;;;;;2.60;0.90;;;;;;;;;;5048300;28;20126;-63
2022/05/18 03:53:58;;;;;;;2.45;0.70;;;;;;;;;;5050711;28;20033;-66
2022/05/18 03:56:26;;;;;;;2.55;0.88;;;;;;;;;;5048352;28;20859;-65
2022/05/18 03:58:53;;;;;;;4.30;1.00;;;;;;;;;;5050583;28;20040;-65
2022/05/18 04:01:20;;;;;;;3.13;0.95;;;;;;;;;;5051739;28;20029;-65
2022/05/18 04:03:47;;;;;;;2.92;1.10;;;;;;;;;;5050767;28;20040;-65
2022/05/18 04:06:14;;;;;;;4.15;1.20;;;;;;;;;;5050199;28;20041;-64
2022/05/18 04:08:41;;;;;;;3.22;1.15;;;;;;;;;;5052479;28;20501;-66
2022/05/18 04:11:09;;;;;;;3.03;1.10;;;;;;;;;;5050621;28;20051;-66
2022/05/18 04:13:35;;;;;;;3.40;1.33;;;;;;;;;;5052216;28;20041;-65
2022/05/18 04:16:02;;;;;;;3.13;1.10;;;;;;;;;;5051621;28;20559;-66
2022/05/18 04:18:29;;;;;;;3.03;1.00;;;;;;;;;;5050113;28;20068;-64
2022/05/18 04:20:56;;;;;;;3.08;1.08;;;;;;;;;;5051569;28;20037;-65
2022/05/18 04:23:24;;;;;;;3.53;1.08;;;;;;;;;;5051086;28;20071;-65
2022/05/18 04:25:52;;;;;;;3.70;1.10;;;;;;;;;;5052727;28;20036;-64
2022/05/18 04:28:18;;;;;;;3.28;1.00;;;;;;;;;;5051824;28;20052;-66
2022/05/18 04:30:48;;;;;;;5.30;1.20;;;;;;;;;;5035104;28;20153;-66
2022/05/18 04:33:18;;;;;;;3.20;1.10;;;;;;;;;;5052987;28;20800;-65
2022/05/18 04:35:45;;;;;;;4.65;1.25;;;;;;;;;;5052609;28;20112;-65
2022/05/18 04:38:12;;;;;;;3.47;1.40;;;;;;;;;;5052239;28;20040;-65
2022/05/18 04:40:38;;;;;;;3.45;1.17;;;;;;;;;;5050833;28;20051;-65
2022/05/18 04:43:05;;;;;;;3.28;1.30;;;;;;;;;;5052731;28;20122;-65
2022/05/18 04:45:32;;;;;;;3.53;1.40;;;;;;;;;;5052807;28;20055;-64
2022/05/18 04:48:01;;;;;;;5.00;1.30;;;;;;;;;;5053352;28;21782;-64
2022/05/18 04:50:31;;;;;;;4.25;1.35;;;;;;;;;;5053338;28;20853;-65
2022/05/18 04:52:58;;;;;;;3.60;1.42;;;;;;;;;;5052543;28;20036;-64
2022/05/18 04:55:24;;;;;;;2.80;1.20;;;;;;;;;;5054070;28;20056;-64
2022/05/18 04:57:51;;;;;;;3.03;1.13;;;;;;;;;;5056392;28;20040;-64
2022/05/18 05:00:18;;;;;;;4.07;1.40;;;;;;;;;;5055369;28;20041;-64
2022/05/18 05:02:45;;;;;;;4.80;1.52;;;;;;;;;;5053686;28;20044;-63
2022/05/18 05:05:13;;;;;;;3.72;1.30;;;;;;;;;;5054194;28;20057;-64
2022/05/18 05:07:39;;;;;;;3.85;1.40;;;;;;;;;;5053054;28;20040;-64
2022/05/18 05:10:07;;;;;;;4.55;1.40;;;;;;;;;;5053210;28;20454;-63
2022/05/18 05:12:34;;;;;;;3.25;1.10;;;;;;;;;;5051472;28;20128;-65
2022/05/18 05:15:02;;;;;;;3.88;1.35;;;;;;;;;;5053706;28;20073;-63
2022/05/18 05:17:29;;;;;;;4.43;1.15;;;;;;;;;;5056229;28;20040;-63
2022/05/18 05:19:57;;;;;;;4.72;1.25;;;;;;;;;;5039704;28;20048;-62
2022/05/18 05:22:24;;;;;;;3.55;1.48;;;;;;;;;;5050657;28;20068;-61
2022/05/18 05:24:51;;;;;;;2.50;0.88;;;;;;;;;;5053629;28;20052;-60
2022/05/18 05:27:17;;;;;;;3.65;1.35;;;;;;;;;;5050906;28;20059;-61
2022/05/18 05:29:44;;;;;;;4.43;1.40;;;;;;;;;;5053290;28;20040;-60
2022/05/18 05:32:12;;;;;;;3.45;1.20;;;;;;;;;;5052875;28;20049;-60
2022/05/18 05:34:39;;;;;;;3.70;1.17;;;;;;;;;;5052868;28;20047;-61
2022/05/18 05:37:05;;;;;;;3.47;1.33;;;;;;;;;;5048037;28;20156;-60
2022/05/18 05:39:32;;;;;;;3.45;1.38;;;;;;;;;;5030732;28;20820;-61
2022/05/18 05:41:59;;;;;;;4.20;1.15;;;;;;;;;;5031521;28;20041;-61
2022/05/18 05:44:26;;;;;;;3.03;1.00;;;;;;;;;;5031753;28;20080;-62
2022/05/18 05:46:53;;;;;;;2.75;1.13;;;;;;;;;;5032178;28;20053;-61
2022/05/18 05:49:20;;;;;;;5.03;1.42;;;;;;;;;;5032419;28;20045;-62
2022/05/18 05:51:47;;;;;;;3.25;1.20;;;;;;;;;;5034154;28;20048;-62
2022/05/18 05:54:13;;;;;;;4.03;1.50;;;;;;;;;;5033913;28;20047;-63
2022/05/18 05:56:40;;;;;;;3.05;1.10;;;;;;;;;;5033461;28;20033;-62
2022/05/18 05:59:07;;;;;;;3.22;1.17;;;;;;;;;;5031398;28;20080;-62
2022/05/18 06:01:34;;;;;;;2.08;0.77;;;;;;;;;;5033664;28;20087;-61
2022/05/18 06:04:03;;;;;;;3.33;1.30;;;;;;;;;;5033340;28;20067;-63
2022/05/18 06:06:29;;;;;;;3.67;1.20;;;;;;;;;;5030500;28;20041;-61
2022/05/18 06:08:56;;;;;;;3.30;1.33;;;;;;;;;;5017627;28;20075;-63
2022/05/18 06:11:23;;;;;;;3.17;1.25;;;;;;;;;;5031833;28;20864;-64
2022/05/18 06:13:50;;;;;;;3.10;1.15;;;;;;;;;;5032263;28;20202;-62
2022/05/18 06:16:16;;;;;;;3.13;1.02;;;;;;;;;;5031739;28;20033;-63
2022/05/18 06:18:43;;;;;;;3.03;1.13;;;;;;;;;;5031577;28;20096;-63
2022/05/18 06:21:10;;;;;;;3.28;1.40;;;;;;;;;;5030283;28;20348;-62
2022/05/18 06:23:36;;;;;;;3.80;1.30;;;;;;;;;;5015660;28;20045;-62
2022/05/18 06:26:05;;;;;;;4.68;1.52;;;;;;;;;;5016226;28;20041;-61
2022/05/18 06:28:36;;;;;;;3.00;1.10;;;;;;;;;;5029532;28;20033;-61
2022/05/18 06:31:03;;;;;;;4.65;1.20;;;;;;;;;;5029677;28;20029;-60
2022/05/18 06:33:30;;;;;;;3.45;1.45;;;;;;;;;;5030961;28;20094;-62
2022/05/18 06:35:57;;;;;;;3.25;1.40;;;;;;;;;;5031071;28;20044;-60
2022/05/18 06:38:24;;;;;;;3.30;1.20;;;;;;;;;;5029604;28;20096;-62
2022/05/18 06:41:32;;;;;;;4.05;1.30;;;;;;;;;;5032768;28;20242;-63
2022/05/18 06:43:40;;;;;;;3.30;1.40;;;;;;;;;;5026254;28;21724;-62
2022/05/18 06:46:07;;;;;;;3.67;1.40;;;;;;;;;;5037810;28;20075;-62
2022/05/18 06:48:34;;;;;;;5.80;1.67;;;;;;;;;;5049612;28;21811;-62
2022/05/18 06:51:00;;;;;;;4.97;1.70;;;;;;;;;;5041472;28;20053;-61
2022/05/18 06:53:28;;;;;;;3.40;1.50;;;;;;;;;;5052033;28;20123;-62
2022/05/18 06:55:54;;;;;;;4.32;1.60;;;;;;;;;;5052070;28;20041;-62
2022/05/18 06:58:21;;;;;;;4.55;1.50;;;;;;;;;;5042026;28;20036;-62
2022/05/18 07:00:48;;;;;;;4.57;1.75;;;;;;;;;;5053812;28;20056;-61
2022/05/18 07:03:16;;;;;;;4.70;1.40;;;;;;;;;;5051491;28;20045;-61
2022/05/18 07:05:43;;;;;;;3.40;1.50;;;;;;;;;;5048518;28;20500;-62
2022/05/18 07:08:10;;;;;;;3.83;1.45;;;;;;;;;;5052035;28;20048;-63
2022/05/18 07:10:36;;;;;;;5.82;1.88;;;;;;;;;;5052347;28;20041;-62
2022/05/18 07:13:04;;;;;;;6.20;1.90;;;;;;;;;;5055952;28;20432;-61
2022/05/18 07:15:31;;;;;;;4.30;1.70;;;;;;;;;;5052117;28;20056;-62
2022/05/18 07:17:57;;;;;;;4.22;1.83;;;;;;;;;;5056646;28;20412;-61
2022/05/18 07:20:24;;;;;;;3.97;1.65;;;;;;;;;;5056577;28;20636;-63
2022/05/18 07:22:51;;;;;;;3.45;1.38;;;;;;;;;;5053900;28;20153;-62
2022/05/18 07:25:18;;;;;;;3.30;1.33;;;;;;;;;;5051054;28;20047;-62
2022/05/18 07:27:45;;;;;;;3.40;1.63;;;;;;;;;;5054884;28;20041;-62
2022/05/18 07:30:13;;;;;;;4.03;1.58;;;;;;;;;;5055359;28;20029;-62
2022/05/18 07:32:39;;;;;;;4.03;1.40;;;;;;;;;;5053109;28;20036;-62
2022/05/18 07:35:06;;;;;;;3.58;1.58;;;;;;;;;;5037696;28;20052;-61
2022/05/18 07:37:33;;;;;;;3.95;1.48;;;;;;;;;;5036980;28;20036;-61
2022/05/18 07:40:00;;;;;;;4.57;1.58;;;;;;;;;;5053683;28;20037;-61
2022/05/18 07:42:27;;;;;;;3.40;1.35;;;;;;;;;;5053263;28;20140;-62
2022/05/18 07:44:53;;;;;;;3.35;1.40;;;;;;;;;;5054339;28;20064;-61
2022/05/18 07:47:27;;;;;;;3.95;1.63;;;;;;;;;;5054019;28;20048;-61
2022/05/18 07:49:54;;;;;;;3.65;1.50;;;;;;;;;;5054523;28;20048;-62
2022/05/18 07:52:21;;;;;;;4.03;1.40;;;;;;;;;;5053688;28;20040;-61
2022/05/18 07:54:47;;;;;;;4.25;1.52;;;;;;;;;;5054611;28;20496;-63
2022/05/18 07:57:15;;;;;;;5.97;1.67;;;;;;;;;;5041716;28;20111;-62
2022/05/18 07:59:42;;;;;;;3.60;1.38;;;;;;;;;;5052419;28;20094;-62
2022/05/18 08:02:08;;;;;;;3.55;1.30;;;;;;;;;;5055941;28;20044;-62
2022/05/18 08:04:35;;;;;;;3.08;1.40;;;;;;;;;;5035498;28;20040;-62
2022/05/18 08:07:02;;;;;;;4.78;2.00;;;;;;;;;;5055081;28;21823;-62
2022/05/18 08:09:28;;;;;;;5.05;1.48;;;;;;;;;;5051595;28;20037;-62
2022/05/18 08:17:25;;;;;;;5.47;1.80;;;;;;;;;;5057066;28;20058;-62
2022/05/18 08:19:52;;;;;;;3.08;1.45;;;;;;;;;;5055154;28;20049;-62
2022/05/18 08:22:19;;;;;;;3.90;1.50;;;;;;;;;;5052045;28;20536;-62
2022/05/18 08:24:46;;;;;;;4.22;1.70;;;;;;;;;;5055615;28;20052;-62
2022/05/18 08:27:14;;;;;;;3.40;1.65;;;;;;;;;;5037971;28;20044;-61
2022/05/18 08:29:41;;;;;;;3.60;1.33;;;;;;;;;;5050906;28;20392;-62
2022/05/18 08:32:08;;;;;;;4.30;1.60;;;;;;;;;;5052022;28;20123;-62
2022/05/18 08:34:35;;;;;;;5.43;1.40;;;;;;;;;;5053182;28;20051;-62
2022/05/18 08:37:02;;;;;;;4.00;1.40;;;;;;;;;;5051330;28;20047;-62
2022/05/18 08:39:28;;;;;;;3.20;1.48;;;;;;;;;;5051496;28;20082;-62
2022/05/18 08:41:56;;;;;;;4.68;1.60;;;;;;;;;;5052260;28;20064;-62
2022/05/18 08:44:28;;;;;;;4.90;1.48;;;;;;;;;;5053733;28;20040;-61
2022/05/18 08:46:55;;;;;;;5.70;1.80;;;;;;;;;;5053052;28;20150;-61
2022/05/18 08:49:42;;;;;;;3.60;1.60;;;;;;;;;;5051163;28;20098;-62
2022/05/18 08:52:19;;;;;;;5.20;2.00;;;;;;;;;;5054289;28;20393;-63
2022/05/18 08:54:58;;;;;;;3.90;1.80;;;;;;;;;;5054124;28;20053;-61
2022/05/18 08:57:26;;;;;;;4.15;1.55;;;;;;;;;;5056602;28;20500;-62
2022/05/18 08:59:55;;;;;;;2.88;1.33;;;;;;;;;;5054462;28;20580;-61
2022/05/18 09:02:24;;;;;;;3.63;1.65;;;;;;;;;;5053150;28;20052;-62
2022/05/18 09:05:02;;;;;;;3.58;1.45;;;;;;;;;;5054240;28;20040;-62
2022/05/18 09:07:34;;;;;;;3.40;1.40;;;;;;;;;;5051468;28;20040;-62
2022/05/18 09:10:12;;;;;;;3.30;1.30;;;;;;;;;;5040583;28;20037;-62
2022/05/18 09:12:40;;;;;;;3.05;1.50;;;;;;;;;;5051120;28;20129;-61
2022/05/18 09:15:09;;;;;;;3.30;1.35;;;;;;;;;;5049647;28;20052;-61
2022/05/18 09:17:38;;;;;;;3.10;1.40;;;;;;;;;;5051536;28;20098;-61
2022/05/18 09:20:16;;;;;;;3.50;1.30;;;;;;;;;;5050632;28;20048;-62
2022/05/18 09:23:01;;;;;;;6.45;1.48;;;;;;;;;;5051044;28;20073;-59
2022/05/18 09:25:35;;;;;;;3.75;1.50;;;;;;;;;;5047347;28;20056;-60
2022/05/18 09:28:08;;;;;;;3.90;1.65;;;;;;;;;;5051711;28;20036;-60
2022/05/18 09:31:01;;;;;;;2.97;1.25;;;;;;;;;;5050881;28;20075;-60
2022/05/18 09:33:36;;;;;;;3.70;1.50;;;;;;;;;;5048713;28;20045;-61
2022/05/18 09:36:14;;;;;;;6.32;1.58;;;;;;;;;;5052928;28;20083;-61
2022/05/18 09:38:47;;;;;;;4.35;1.58;;;;;;;;;;5050457;28;20032;-61
2022/05/18 09:41:16;;;;;;;4.00;1.58;;;;;;;;;;5032745;28;20059;-62
2022/05/18 09:43:49;;;;;;;4.68;1.60;;;;;;;;;;5052507;28;20037;-62
2022/05/18 09:46:20;;;;;;;3.60;1.65;;;;;;;;;;5042271;28;20768;-60
2022/05/18 09:48:51;;;;;;;3.92;1.70;;;;;;;;;;5051077;28;20055;-61
2022/05/18 09:51:18;;;;;;;4.47;2.00;;;;;;;;;;5038443;28;20055;-60
2022/05/18 09:53:45;;;;;;;4.68;1.95;;;;;;;;;;5053209;28;20041;-60
2022/05/18 09:56:18;;;;;;;4.80;2.00;;;;;;;;;;5052904;28;20060;-60
2022/05/18 09:58:47;;;;;;;4.38;1.98;;;;;;;;;;5051497;28;20041;-60
2022/05/18 10:09:46;;;;;;;3.70;1.88;;;;;;;;;;5052395;28;20055;-59
2022/05/18 10:12:13;;;;;;;3.47;1.63;;;;;;;;;;5053803;28;20071;-60
2022/05/18 10:14:40;;;;;;;4.50;1.60;;;;;;;;;;5055635;28;20072;-60
2022/05/18 10:17:13;;;;;;;5.75;1.42;;;;;;;;;;5055027;28;20041;-61
2022/05/18 10:19:43;;;;;;;5.50;1.73;;;;;;;;;;5055485;28;20069;-60
2022/05/18 10:22:13;;;;;;;4.97;1.75;;;;;;;;;;5035869;28;20044;-59
2022/05/18 10:24:42;;;;;;;5.63;2.03;;;;;;;;;;5053337;28;20139;-61
2022/05/18 10:27:18;;;;;;;7.57;3.92;;;;;;;;;;5053217;28;20052;-61
2022/05/18 10:29:51;;;;;;;8.25;5.15;;;;;;;;;;5051076;28;20085;-61
2022/05/18 10:32:22;;;;;;;13.05;8.07;;;;;;;;;;5039624;28;20094;-60
2022/05/18 10:34:51;;;;;;;15.00;10.23;;;;;;;;;;5050507;28;20087;-61
2022/05/18 10:37:33;;;;;;;15.05;8.88;;;;;;;;;;5052144;28;20550;-61
2022/05/18 10:40:06;;;;;;;11.52;6.05;;;;;;;;;;5049651;28;20029;-62
2022/05/18 10:42:42;;;;;;;12.13;5.32;;;;;;;;;;5050034;28;20148;-62
2022/05/18 10:45:28;;;;;;;8.95;4.40;;;;;;;;;;5039069;28;20843;-61
2022/05/18 10:47:57;;;;;;;7.70;3.42;;;;;;;;;;5055605;28;20563;-62
2022/05/18 10:50:27;;;;;;;7.85;3.50;;;;;;;;;;5054074;28;20085;-61
2022/05/18 10:52:58;;;;;;;6.18;2.78;;;;;;;;;;5056423;28;20051;-61
2022/05/18 10:55:26;;;;;;;5.55;2.83;;;;;;;;;;5055720;28;21280;-60
2022/05/18 10:57:56;;;;;;;4.60;2.10;;;;;;;;;;5057113;28;20049;-60
2022/05/18 11:00:25;;;;;;;4.63;2.08;;;;;;;;;;5056094;28;20050;-61
2022/05/18 11:02:51;;;;;;;3.80;1.77;;;;;;;;;;5044326;28;20453;-61
2022/05/18 11:05:18;;;;;;;4.80;1.90;;;;;;;;;;5039455;28;20041;-62
2022/05/18 11:07:45;;;;;;;3.70;2.00;;;;;;;;;;5054026;28;20156;-61
2022/05/18 11:10:13;;;;;;;4.95;1.83;;;;;;;;;;5055261;28;20043;-62
2022/05/18 11:12:39;;;;;;;4.95;1.90;;;;;;;;;;5057788;28;20044;-62
2022/05/18 11:15:06;;;;;;;5.82;1.95;;;;;;;;;;5057309;28;20057;-61
2022/05/18 11:18:05;;;;;;;5.10;2.17;;;;;;;;;;5056343;28;20037;-60
2022/05/18 11:20:39;;;;;;;4.40;1.92;;;;;;;;;;5013975;28;20044;-60
2022/05/18 11:23:08;;;;;;;3.45;1.77;;;;;;;;;;5058309;28;20130;-62
2022/05/18 11:25:35;;;;;;;4.50;2.33;;;;;;;;;;5055270;28;20048;-62
2022/05/18 11:28:06;;;;;;;7.70;2.00;;;;;;;;;;5057132;28;20065;-65
2022/05/18 11:30:36;;;;;;;4.32;2.00;;;;;;;;;;5052145;28;20041;-61
2022/05/18 11:33:28;;;;;;;4.40;1.92;;;;;;;;;;5055206;28;20051;-62
2022/05/18 11:36:07;;;;;;;5.45;1.80;;;;;;;;;;5053164;28;20144;-62
2022/05/18 11:38:37;;;;;;;4.78;1.70;;;;;;;;;;5055849;28;20045;-62
2022/05/18 11:41:03;;;;;;;4.70;2.15;;;;;;;;;;5056750;28;20036;-61
2022/05/18 11:43:48;;;;;;;4.45;2.22;;;;;;;;;;5053722;28;20033;-62
2022/05/18 11:46:30;;;;;;;5.57;2.47;;;;;;;;;;5056060;28;20055;-62
2022/05/18 11:49:03;;;;;;;5.78;2.35;;;;;;;;;;5056814;28;20048;-62
2022/05/18 11:51:41;;;;;;;5.07;2.17;;;;;;;;;;5056207;28;20345;-61
2022/05/18 11:54:17;;;;;;;4.47;2.05;;;;;;;;;;5042017;28;20517;-61
2022/05/18 11:56:55;;;;;;;7.72;3.15;;;;;;;;;;5055977;28;20041;-61
2022/05/18 11:59:52;;;;;;;5.22;2.63;;;;;;;;;;5039241;28;20139;-61
2022/05/18 12:02:30;;;;;;;6.20;2.50;;;;;;;;;;5055187;28;20040;-60
2022/05/18 12:05:15;;;;;;;7.70;2.65;;;;;;;;;;5054626;28;20061;-64
2022/05/18 12:07:44;;;;;;;6.10;2.30;;;;;;;;;;5050826;28;20040;-60
2022/05/18 12:10:37;;;;;;;7.63;2.38;;;;;;;;;;5054266;28;20059;-61
2022/05/18 12:13:10;;;;;;;5.15;2.38;;;;;;;;;;5051381;28;20047;-62
2022/05/18 12:15:43;;;;;;;7.40;3.00;;;;;;;;;;5053508;28;20065;-61
2022/05/18 12:18:19;;;;;;;5.03;2.20;;;;;;;;;;5054480;28;20039;-60
2022/05/18 12:20:59;;;;;;;6.35;2.60;;;;;;;;;;5037884;28;20556;-60
2022/05/18 12:23:29;;;;;;;5.53;2.60;;;;;;;;;;5053926;28;20131;-61
2022/05/18 12:25:56;;;;;;;7.07;2.20;;;;;;;;;;5051459;28;20122;-63
2022/05/18 12:28:24;;;;;;;4.82;2.45;;;;;;;;;;5048657;28;20047;-60
2022/05/18 12:30:51;;;;;;;7.63;2.08;;;;;;;;;;5034851;28;20041;-62
2022/05/18 12:33:19;;;;;;;4.75;2.38;;;;;;;;;;5041630;28;20130;-61
2022/05/18 12:36:04;;;;;;;5.40;2.45;;;;;;;;;;5049173;28;20075;-62
2022/05/18 12:38:38;;;;;;;7.15;2.58;;;;;;;;;;5052200;28;20446;-65
2022/05/18 12:41:09;;;;;;;6.68;3.03;;;;;;;;;;5033654;28;20146;-61
2022/05/18 12:43:40;;;;;;;6.32;2.90;;;;;;;;;;5049776;28;20045;-63
2022/05/18 12:46:16;;;;;;;5.82;2.80;;;;;;;;;;5049827;28;20063;-62
2022/05/18 12:48:51;;;;;;;7.47;2.50;;;;;;;;;;5049679;28;20097;-61
2022/05/18 12:51:30;;;;;;;5.25;2.40;;;;;;;;;;5033299;28;20036;-61
2022/05/18 12:54:15;;;;;;;9.00;2.80;;;;;;;;;;5048939;28;20143;-61
2022/05/18 12:56:42;;;;;;;4.95;2.25;;;;;;;;;;5048266;28;20429;-60
2022/05/18 12:59:08;;;;;;;6.57;2.60;;;;;;;;;;5050408;28;20144;-61
2022/05/18 13:01:40;;;;;;;6.88;2.72;;;;;;;;;;5051285;28;20044;-60
2022/05/18 13:04:19;;;;;;;9.23;3.08;;;;;;;;;;5050940;28;20132;-63
2022/05/18 13:06:49;;;;;;;8.13;2.60;;;;;;;;;;5032819;28;20040;-61
2022/05/18 13:09:28;;;;;;;5.90;2.78;;;;;;;;;;5048892;28;20072;-62
2022/05/18 13:12:04;;;;;;;6.65;2.30;;;;;;;;;;5050260;28;20076;-61
2022/05/18 13:14:38;;;;;;;4.53;2.30;;;;;;;;;;5049931;28;20052;-61
2022/05/18 13:17:14;;;;;;;5.72;2.60;;;;;;;;;;5031432;28;20041;-62
2022/05/18 13:19:59;;;;;;;9.10;2.88;;;;;;;;;;5050900;28;20070;-62
2022/05/18 13:22:38;;;;;;;8.90;2.92;;;;;;;;;;5030187;28;20037;-62
2022/05/18 13:25:06;;;;;;;10.85;3.35;;;;;;;;;;5049611;28;20128;-62
2022/05/18 13:27:35;;;;;;;7.50;3.20;;;;;;;;;;5048894;28;20071;-62
2022/05/18 13:30:03;;;;;;;7.53;3.10;;;;;;;;;;5051042;28;21175;-61
2022/05/18 13:32:31;;;;;;;6.13;2.65;;;;;;;;;;5050263;28;20037;-61
2022/05/18 13:35:11;;;;;;;10.25;2.95;;;;;;;;;;5048830;28;20533;-61
2022/05/18 13:37:37;;;;;;;5.25;2.50;;;;;;;;;;5050362;28;20053;-62
2022/05/18 13:40:05;;;;;;;5.00;2.15;;;;;;;;;;5050373;28;20037;-61
2022/05/18 13:42:33;;;;;;;5.13;2.40;;;;;;;;;;5051029;28;20043;-62
2022/05/18 13:45:10;;;;;;;6.32;2.53;;;;;;;;;;5050252;28;20053;-61
2022/05/18 13:47:39;;;;;;;7.32;3.05;;;;;;;;;;5050058;28;21307;-62
2022/05/18 13:50:17;;;;;;;5.63;2.75;;;;;;;;;;5050810;28;20052;-63
2022/05/18 13:52:44;;;;;;;5.03;2.45;;;;;;;;;;5033128;28;20041;-62
2022/05/18 13:55:13;;;;;;;8.40;3.00;;;;;;;;;;5049302;28;20044;-62
2022/05/18 13:57:45;;;;;;;5.00;2.40;;;;;;;;;;5049001;28;20044;-62
2022/05/18 14:00:32;;;;;;;8.25;3.88;;;;;;;;;;5030700;28;20135;-61
2022/05/18 14:03:01;;;;;;;7.85;4.53;;;;;;;;;;5047597;28;20045;-62
2022/05/18 14:05:33;;;;;;;7.15;3.25;;;;;;;;;;5047193;28;20063;-62
2022/05/18 14:08:01;;;;;;;5.85;3.10;;;;;;;;;;5049497;28;20040;-62
2022/05/18 14:10:28;;;;;;;6.40;3.00;;;;;;;;;;5045990;28;20037;-62
2022/05/18 14:12:57;;;;;;;7.07;3.15;;;;;;;;;;5048756;28;20485;-62
2022/05/18 14:15:24;;;;;;;7.57;2.70;;;;;;;;;;5047234;28;20041;-62
2022/05/18 14:17:55;;;;;;;6.45;2.95;;;;;;;;;;5048320;28;20596;-62
2022/05/18 14:20:26;;;;;;;6.32;3.15;;;;;;;;;;5043570;28;20480;-62
2022/05/18 14:22:56;;;;;;;8.05;3.10;;;;;;;;;;5047903;28;20045;-62
2022/05/18 14:25:27;;;;;;;5.53;2.58;;;;;;;;;;5047261;28;20037;-62
2022/05/18 14:27:56;;;;;;;8.00;3.05;;;;;;;;;;5049394;28;20763;-61
2022/05/18 14:30:25;;;;;;;6.53;3.13;;;;;;;;;;5049743;28;20383;-62
2022/05/18 14:32:55;;;;;;;9.10;2.97;;;;;;;;;;5033358;28;20468;-62
2022/05/18 14:35:25;;;;;;;9.43;3.40;;;;;;;;;;5032876;28;20405;-62
2022/05/18 14:37:57;;;;;;;7.05;3.25;;;;;;;;;;5049724;28;20040;-62
2022/05/18 14:40:26;;;;;;;9.93;3.08;;;;;;;;;;5040146;28;20044;-63
2022/05/18 14:42:53;;;;;;;7.68;3.20;;;;;;;;;;5050904;28;20057;-62
2022/05/18 14:45:23;;;;;;;9.00;3.63;;;;;;;;;;5049804;28;20037;-62
2022/05/18 14:47:51;;;;;;;10.85;3.53;;;;;;;;;;5051860;28;20044;-62
2022/05/18 14:50:18;;;;;;;9.20;3.20;;;;;;;;;;5051309;28;20037;-62
2022/05/18 14:52:51;;;;;;;6.80;3.33;;;;;;;;;;5048816;28;20128;-63
2022/05/18 14:55:25;;;;;;;4.75;2.50;;;;;;;;;;5047237;28;20052;-63
2022/05/18 14:57:52;;;;;;;6.00;2.58;;;;;;;;;;5047595;28;20394;-63
2022/05/18 15:00:23;;;;;;;5.35;2.65;;;;;;;;;;5047755;28;20059;-62
2022/05/18 15:02:51;;;;;;;6.13;2.13;;;;;;;;;;5051136;28;20075;-63
2022/05/18 15:05:25;;;;;;;8.40;2.30;;;;;;;;;;5051407;28;20032;-62
2022/05/18 15:07:56;;;;;;;8.18;2.13;;;;;;;;;;5053952;28;20071;-62
2022/05/18 15:10:45;;;;;;;5.95;2.42;;;;;;;;;;5052588;28;20043;-62
2022/05/18 15:13:17;;;;;;;6.07;2.20;;;;;;;;;;5054282;28;20040;-62
2022/05/18 15:15:51;;;;;;;5.30;2.20;;;;;;;;;;5052675;28;20045;-61
2022/05/18 15:18:35;;;;;;;6.25;2.22;;;;;;;;;;5051144;28;20055;-62